Time;durP1;ratioP1;P1;durP2;ratioP2;P2;SDS_P1;SDS_P2;PMS_P1;PMS_P2;Temp;Humidity;BMP_temperature;BMP_pressure;BME280_temperature;BME280_humidity;BME280_pressure;Samples;Min_cycle;Max_cycle;Signal;HPM_P1;HPM_P2
2022/01/27 00:03:14;;;;;;;26.48;11.97;;;;;;;1.03;90.45;99524.06;1716031;83;21031;-65
2022/01/27 00:05:27;;;;;;;32.33;12.95;;;;;;;0.94;90.92;99529.36;1711944;83;21023;-66
2022/01/27 00:08:15;;;;;;;32.20;14.25;;;;;;;1.03;91.13;99530.53;1715553;83;21035;-66
2022/01/27 00:13:12;;;;;;;27.15;12.88;;;;;;;1.08;90.87;99535.22;1716040;83;20168;-65
2022/01/27 00:15:38;;;;;;;28.77;13.10;;;;;;;1.07;90.83;99528.77;1715589;83;21030;-66
2022/01/27 00:18:12;;;;;;;25.37;13.15;;;;;;;1.13;90.70;99517.05;1716009;84;21026;-65
2022/01/27 00:20:32;;;;;;;27.48;13.68;;;;;;;1.09;90.64;99513.64;1714775;84;20991;-65
2022/01/27 00:22:58;;;;;;;30.05;13.98;;;;;;;1.11;90.38;99515.77;1715993;83;20980;-66
2022/01/27 00:25:24;;;;;;;30.82;14.73;;;;;;;1.11;90.55;99520.06;1716008;83;21007;-66
2022/01/27 00:27:50;;;;;;;32.60;14.85;;;;;;;1.07;90.84;99515.81;1716211;83;20998;-66
2022/01/27 00:30:16;;;;;;;29.70;13.32;;;;;;;1.14;90.68;99510.52;1716037;83;20996;-68
2022/01/27 00:32:42;;;;;;;30.90;13.48;;;;;;;1.11;90.48;99512.30;1715614;84;21535;-67
2022/01/27 00:35:10;;;;;;;30.82;14.78;;;;;;;1.14;90.29;99510.52;1714699;83;21062;-65
2022/01/27 00:37:36;;;;;;;26.10;13.53;;;;;;;1.07;90.47;99506.30;1714860;83;21187;-67
2022/01/27 00:40:06;;;;;;;28.90;13.28;;;;;;;1.15;90.57;99508.81;1715017;84;21062;-66
2022/01/27 00:42:33;;;;;;;29.50;13.55;;;;;;;1.14;90.76;99502.75;1716044;84;21039;-67
2022/01/27 00:44:59;;;;;;;29.60;12.90;;;;;;;1.21;90.63;99510.45;1725542;81;21445;-66
2022/01/27 00:47:25;;;;;;;29.77;14.28;;;;;;;1.14;90.60;99513.56;1738548;82;20971;-66
2022/01/27 00:49:51;;;;;;;26.40;14.28;;;;;;;1.12;90.69;99520.05;1738602;82;20987;-66
2022/01/27 00:52:27;;;;;;;32.08;13.68;;;;;;;1.13;90.72;99521.78;1738375;82;21491;-66
2022/01/27 00:54:45;;;;;;;27.37;13.55;;;;;;;1.06;90.76;99515.41;1737156;82;21047;-66
2022/01/27 00:57:23;;;;;;;31.40;14.03;;;;;;;1.08;91.09;99523.56;1737519;82;21562;-67
2022/01/27 00:59:56;;;;;;;27.55;13.72;;;;;;;1.08;91.27;99520.98;1735906;82;21042;-66
2022/01/27 01:02:43;;;;;;;32.48;14.50;;;;;;;1.11;91.27;99520.95;1736940;82;21015;-65
2022/01/27 01:07:31;;;;;;;33.75;15.23;;;;;;;1.11;91.11;99517.06;1699913;82;21564;-65
2022/01/27 01:10:38;;;;;;;;;;;;;;;1.11;91.10;99512.30;1739202;82;20995;-66
2022/01/27 01:15:01;;;;;;;31.80;15.03;;;;;;;1.04;91.47;99509.40;1737743;82;20983;-64
2022/01/27 01:33:11;;;;;;;44.83;19.07;;;;;;;1.06;92.92;99489.52;1738650;82;20995;-65
2022/01/27 01:35:48;;;;;;;44.65;18.12;;;;;;;1.06;92.54;99499.88;1738526;82;21011;-65
2022/01/27 01:38:04;;;;;;;41.20;17.92;;;;;;;1.00;93.02;99491.75;1736370;82;21285;-66
2022/01/27 01:40:29;;;;;;;57.03;21.27;;;;;;;1.10;92.75;99484.25;1737569;82;21066;-65
2022/01/27 01:42:55;;;;;;;48.48;21.17;;;;;;;1.04;92.90;99492.11;1737399;82;21384;-65
2022/01/27 01:45:22;;;;;;;42.13;19.30;;;;;;;1.06;93.08;99492.95;1732644;82;21618;-65
2022/01/27 01:47:51;;;;;;;43.90;20.05;;;;;;;1.08;93.29;99486.45;1728939;83;21011;-65
2022/01/27 01:50:18;;;;;;;43.92;18.92;;;;;;;1.08;93.27;99480.83;1728775;83;21038;-65
2022/01/27 01:52:45;;;;;;;46.48;18.90;;;;;;;1.15;93.02;99479.02;1728867;83;21516;-65
2022/01/27 01:55:12;;;;;;;48.43;20.43;;;;;;;1.15;93.34;99478.58;1729025;83;20998;-65
2022/01/27 01:57:38;;;;;;;48.38;20.10;;;;;;;1.08;93.21;99481.28;1728865;83;21419;-65
2022/01/27 02:00:09;;;;;;;39.15;16.67;;;;;;;1.14;93.32;99486.36;1728805;83;21007;-65
2022/01/27 02:02:35;;;;;;;43.38;19.70;;;;;;;1.22;92.93;99490.13;1728716;83;21503;-65
2022/01/27 02:05:02;;;;;;;48.20;19.37;;;;;;;1.07;93.19;99479.11;1728692;83;20998;-65
2022/01/27 02:07:49;;;;;;;47.83;20.52;;;;;;;1.10;93.48;99474.34;1728655;83;20974;-64
2022/01/27 02:18:01;;;;;;;41.60;19.55;;;;;;;1.11;93.14;99466.55;1728114;83;21103;-65
2022/01/27 02:20:29;;;;;;;43.02;19.62;;;;;;;1.13;93.33;99469.97;1728850;83;20986;-65
2022/01/27 02:22:55;;;;;;;45.43;18.25;;;;;;;1.19;93.50;99466.89;1728669;83;21037;-66
2022/01/27 02:25:22;;;;;;;40.73;18.32;;;;;;;1.23;93.25;99455.14;1728666;83;21039;-65
2022/01/27 02:27:54;;;;;;;45.05;18.92;;;;;;;1.14;93.61;99456.12;1728869;83;21002;-65
2022/01/27 02:30:22;;;;;;;42.35;19.17;;;;;;;1.15;94.03;99457.00;1728719;83;21472;-65
2022/01/27 02:32:50;;;;;;;43.68;18.73;;;;;;;1.15;93.80;99456.56;1728694;83;20995;-65
2022/01/27 02:35:15;;;;;;;35.50;17.85;;;;;;;1.17;93.56;99447.92;1728713;83;21038;-66
2022/01/27 02:37:42;;;;;;;35.85;16.67;;;;;;;1.15;93.94;99450.08;1728746;83;20975;-66
2022/01/27 02:43:09;;;;;;;35.23;17.50;;;;;;;1.18;93.82;99450.91;1771612;80;21110;-39
2022/01/27 02:46:00;;;;;;;40.50;18.85;;;;;;;1.21;93.97;99452.17;1776447;80;21078;-39
2022/01/27 02:48:26;;;;;;;41.88;18.80;;;;;;;1.15;93.71;99445.34;1719184;82;21488;-40
2022/01/27 02:50:52;;;;;;;41.28;18.87;;;;;;;1.20;94.23;99453.91;1745262;82;21043;-40
2022/01/27 02:53:18;;;;;;;41.77;19.30;;;;;;;1.14;94.38;99450.09;1745171;82;21543;-38
2022/01/27 02:55:44;;;;;;;38.10;18.02;;;;;;;1.19;94.12;99450.05;1745183;82;20992;-38
2022/01/27 02:58:10;;;;;;;41.80;19.02;;;;;;;1.04;94.78;99440.77;1745133;82;21084;-40
2022/01/27 03:00:36;;;;;;;38.67;18.90;;;;;;;1.15;94.79;99454.41;1745480;82;21540;-40
2022/01/27 03:03:03;;;;;;;39.08;18.92;;;;;;;1.15;94.64;99452.67;1745098;82;21441;-39
2022/01/27 03:05:29;;;;;;;37.60;18.70;;;;;;;1.16;94.77;99439.27;1745166;82;21016;-40
2022/01/27 03:07:55;;;;;;;45.12;19.57;;;;;;;1.21;94.62;99432.74;1745179;82;21566;-40
2022/01/27 03:10:21;;;;;;;42.62;20.48;;;;;;;1.21;94.33;99430.16;1745147;82;20995;-39
2022/01/27 03:12:49;;;;;;;40.30;19.32;;;;;;;1.21;94.32;99431.00;1745129;82;20999;-39
2022/01/27 03:15:15;;;;;;;38.15;18.60;;;;;;;1.19;94.47;99434.05;1745148;82;21062;-39
2022/01/27 03:17:41;;;;;;;42.95;19.32;;;;;;;1.18;94.35;99430.19;1745234;82;21520;-39
2022/01/27 03:20:09;;;;;;;42.70;19.62;;;;;;;1.12;94.82;99433.28;1744436;82;21518;-40
2022/01/27 03:22:35;;;;;;;37.42;19.02;;;;;;;1.11;94.58;99436.77;1756531;81;21539;-40
2022/01/27 03:25:03;;;;;;;40.98;19.95;;;;;;;1.01;94.84;99428.70;1754303;81;20972;-39
2022/01/27 03:27:29;;;;;;;38.73;19.50;;;;;;;1.05;95.35;99420.00;1754062;82;20984;-40
2022/01/27 03:29:54;;;;;;;44.08;21.27;;;;;;;1.04;95.82;99418.76;1754122;82;20952;-39
2022/01/27 03:32:20;;;;;;;38.75;19.02;;;;;;;1.03;95.78;99417.88;1753835;81;21000;-39
2022/01/27 03:34:46;;;;;;;39.70;18.57;;;;;;;1.04;95.94;99434.30;1753834;82;20952;-40
2022/01/27 03:37:13;;;;;;;36.58;18.82;;;;;;;1.08;95.83;99435.50;1753854;82;20976;-39
2022/01/27 03:39:40;;;;;;;41.48;19.60;;;;;;;1.05;95.92;99420.45;1753887;82;21511;-40
2022/01/27 03:42:08;;;;;;;41.77;18.98;;;;;;;1.10;95.74;99419.50;1766352;80;21000;-40
2022/01/27 03:44:34;;;;;;;43.87;20.60;;;;;;;1.14;95.70;99415.13;1786637;80;20988;-39
2022/01/27 03:47:01;;;;;;;42.35;19.87;;;;;;;1.10;95.82;99422.54;1786806;80;20967;-40
2022/01/27 03:49:26;;;;;;;42.25;20.20;;;;;;;1.11;95.83;99406.98;1786701;80;21030;-39
2022/01/27 03:51:58;;;;;;;39.98;20.52;;;;;;;1.10;95.82;99411.73;1786712;80;20979;-39
2022/01/27 03:54:21;;;;;;;45.08;20.27;;;;;;;1.10;95.75;99414.32;1785984;80;21022;-39
2022/01/27 03:56:46;;;;;;;44.65;21.20;;;;;;;1.18;95.49;99407.72;1786759;80;21022;-39
2022/01/27 03:59:12;;;;;;;45.28;20.00;;;;;;;1.08;95.54;99408.31;1786676;80;21015;-39
2022/01/27 04:01:39;;;;;;;38.48;19.07;;;;;;;1.09;95.65;99403.56;1786778;80;20955;-40
2022/01/27 04:04:04;;;;;;;33.75;17.32;;;;;;;1.07;95.45;99392.34;1786839;79;20964;-39
2022/01/27 04:06:35;;;;;;;34.80;16.93;;;;;;;1.11;95.19;99388.85;1786798;80;21459;-39
2022/01/27 04:09:04;;;;;;;34.60;17.27;;;;;;;1.10;94.97;99383.23;1786603;80;20947;-40
2022/01/27 04:11:30;;;;;;;36.65;16.82;;;;;;;1.08;95.28;99393.22;1786700;80;20995;-40
2022/01/27 04:13:55;;;;;;;37.38;18.07;;;;;;;1.00;95.04;99388.16;1786725;80;21030;-40
2022/01/27 04:16:21;;;;;;;36.95;18.40;;;;;;;1.03;95.36;99373.85;1786806;80;21033;-39
2022/01/27 04:18:47;;;;;;;32.63;17.00;;;;;;;1.05;95.21;99362.17;1786678;80;21372;-39
2022/01/27 04:21:14;;;;;;;32.78;16.70;;;;;;;1.01;95.16;99373.47;1786690;80;20991;-39
2022/01/27 04:23:40;;;;;;;27.15;14.60;;;;;;;1.08;94.93;99371.20;1786871;80;21022;-39
2022/01/27 04:26:06;;;;;;;34.18;16.15;;;;;;;1.13;94.79;99370.25;1786739;80;21471;-39
2022/01/27 04:28:35;;;;;;;28.83;14.40;;;;;;;1.13;94.71;99368.11;1786891;80;20978;-39
2022/01/27 04:31:03;;;;;;;;;;;;;;;1.19;94.58;99371.04;1789217;80;20940;-39
2022/01/27 04:33:30;;;;;;;25.75;14.45;;;;;;;1.17;94.42;99371.51;1786468;80;20112;-40
2022/01/27 04:35:59;;;;;;;32.20;15.55;;;;;;;1.19;94.39;99369.75;1786449;80;21790;-39
2022/01/27 04:38:28;;;;;;;;;;;;;;;1.23;94.18;99367.52;1788927;80;20963;-39
2022/01/27 04:48:16;;;;;;;28.62;15.13;;;;;;;1.24;93.79;99349.81;1769133;80;21362;-41
2022/01/27 04:50:41;;;;;;;35.00;16.17;;;;;;;1.23;93.69;99346.79;1767434;81;20991;-40
2022/01/27 04:53:13;;;;;;;34.15;16.25;;;;;;;1.26;93.58;99338.98;1768139;81;20994;-40
2022/01/27 04:55:35;;;;;;;32.40;16.48;;;;;;;1.29;93.52;99341.49;1768542;81;20983;-41
2022/01/27 04:58:10;;;;;;;34.80;17.27;;;;;;;1.30;93.62;99344.52;1768382;81;20984;-40
2022/01/27 05:00:31;;;;;;;34.78;17.37;;;;;;;1.33;93.49;99335.41;1768144;81;21426;-42
2022/01/27 05:02:59;;;;;;;34.70;17.87;;;;;;;1.36;93.47;99341.80;1768713;81;20955;-39
2022/01/27 05:05:25;;;;;;;35.45;17.95;;;;;;;1.34;93.35;99340.98;1768211;81;20995;-42
2022/01/27 05:08:00;;;;;;;43.83;20.40;;;;;;;1.38;93.48;99342.62;1767957;81;21489;-41
2022/01/27 05:10:29;;;;;;;42.83;21.05;;;;;;;1.37;93.60;99356.48;1769393;81;21456;-40
2022/01/27 05:12:56;;;;;;;46.08;21.12;;;;;;;1.29;93.83;99344.08;1768035;81;20984;-40
2022/01/27 05:15:21;;;;;;;42.93;19.75;;;;;;;1.25;93.86;99326.89;1768519;80;21088;-41
2022/01/27 05:17:47;;;;;;;46.42;19.50;;;;;;;1.21;93.90;99336.45;1769616;81;21484;-41
2022/01/27 05:20:13;;;;;;;48.73;22.45;;;;;;;1.28;94.10;99335.91;1768112;81;20991;-38
2022/01/27 05:22:38;;;;;;;47.08;21.85;;;;;;;1.31;93.90;99321.17;1767636;81;20975;-40
2022/01/27 05:25:05;;;;;;;43.83;22.15;;;;;;;1.26;93.93;99327.31;1769310;81;21445;-38
2022/01/27 05:27:30;;;;;;;43.90;21.10;;;;;;;1.18;94.34;99313.63;1767659;81;21113;-41
2022/01/27 05:29:56;;;;;;;42.80;19.37;;;;;;;1.23;94.23;99317.00;1767978;81;21019;-40
2022/01/27 05:32:22;;;;;;;46.63;21.42;;;;;;;1.29;94.05;99313.00;1767962;81;20979;-39
2022/01/27 05:34:48;;;;;;;43.70;20.68;;;;;;;1.24;94.16;99318.27;1768188;81;20991;-39
2022/01/27 05:37:14;;;;;;;44.30;21.48;;;;;;;1.26;94.31;99309.19;1770955;81;21413;-40
2022/01/27 05:39:39;;;;;;;46.13;21.35;;;;;;;1.22;94.35;99313.56;1767606;81;21010;-40
2022/01/27 05:42:06;;;;;;;40.10;19.98;;;;;;;1.27;94.21;99312.17;1767960;80;21047;-39
2022/01/27 05:44:31;;;;;;;40.12;21.23;;;;;;;1.28;94.07;99323.81;1769075;81;20979;-40
2022/01/27 05:46:58;;;;;;;46.20;20.72;;;;;;;1.28;93.96;99306.97;1768169;81;21524;-40
2022/01/27 05:49:24;;;;;;;43.80;21.35;;;;;;;1.28;93.92;99312.15;1767795;81;21793;-40
2022/01/27 05:51:49;;;;;;;43.63;20.57;;;;;;;1.33;94.00;99301.72;1767993;81;21507;-40
2022/01/27 05:54:15;;;;;;;41.00;21.25;;;;;;;1.31;94.03;99299.57;1768003;80;21016;-40
2022/01/27 05:56:41;;;;;;;44.05;21.42;;;;;;;1.28;93.93;99300.94;1769812;80;21003;-40
2022/01/27 05:59:07;;;;;;;45.10;21.57;;;;;;;1.31;93.88;99289.20;1767574;81;21461;-39
2022/01/27 06:01:32;;;;;;;48.28;22.45;;;;;;;1.31;93.95;99281.02;1767773;81;21115;-41
2022/01/27 06:03:58;;;;;;;41.50;20.65;;;;;;;1.36;93.92;99280.07;1766986;81;20988;-40
2022/01/27 06:06:24;;;;;;;43.15;22.45;;;;;;;1.34;93.77;99276.20;1768915;81;21453;-40
2022/01/27 06:08:50;;;;;;;39.48;20.17;;;;;;;1.37;93.85;99276.16;1768856;81;20944;-41
2022/01/27 06:11:16;;;;;;;41.63;21.02;;;;;;;1.38;93.66;99276.55;1767942;81;20987;-40
2022/01/27 06:13:43;;;;;;;40.45;19.90;;;;;;;1.36;93.48;99270.55;1769222;81;21468;-39
2022/01/27 06:16:10;;;;;;;39.33;19.90;;;;;;;1.43;93.51;99268.27;1768721;81;21464;-39
2022/01/27 06:18:37;;;;;;;37.73;20.48;;;;;;;1.34;93.64;99258.07;1768445;81;20975;-39
2022/01/27 06:21:05;;;;;;;42.43;19.90;;;;;;;1.43;93.59;99256.60;1768555;81;21464;-39
2022/01/27 06:23:31;;;;;;;42.15;20.85;;;;;;;1.44;93.36;99266.09;1768601;81;20984;-40
2022/01/27 06:25:59;;;;;;;37.75;18.90;;;;;;;1.36;93.58;99259.34;1768113;81;21015;-40
2022/01/27 06:28:25;;;;;;;42.33;20.72;;;;;;;1.30;94.03;99252.54;1768740;81;20979;-41
2022/01/27 06:30:51;;;;;;;38.23;19.52;;;;;;;1.40;93.73;99246.31;1767654;81;20975;-41
2022/01/27 06:33:17;;;;;;;42.43;20.20;;;;;;;1.40;93.58;99251.50;1768540;81;20971;-40
2022/01/27 06:35:43;;;;;;;41.63;20.50;;;;;;;1.42;93.59;99248.85;1768108;81;21524;-40
2022/01/27 06:38:09;;;;;;;37.63;20.02;;;;;;;1.43;93.42;99246.23;1766885;81;20975;-41
2022/01/27 06:40:35;;;;;;;42.73;20.48;;;;;;;1.47;93.44;99241.40;1767718;81;20952;-40
2022/01/27 06:43:01;;;;;;;41.83;19.92;;;;;;;1.48;93.25;99235.80;1768424;81;21004;-41
2022/01/27 06:45:27;;;;;;;35.63;18.37;;;;;;;1.45;93.49;99228.08;1768186;81;20980;-40
2022/01/27 06:47:53;;;;;;;39.15;19.10;;;;;;;1.41;93.47;99207.84;1769573;81;20956;-41
2022/01/27 06:50:19;;;;;;;39.70;19.73;;;;;;;1.47;93.46;99219.38;1768363;81;21011;-40
2022/01/27 06:52:45;;;;;;;41.33;18.70;;;;;;;1.39;93.59;99223.02;1769089;81;21015;-41
2022/01/27 06:55:13;;;;;;;39.63;19.40;;;;;;;1.47;93.55;99223.71;1767894;81;20944;-40
2022/01/27 06:57:39;;;;;;;36.75;19.92;;;;;;;1.41;93.45;99218.66;1767134;81;20987;-41
2022/01/27 07:00:08;;;;;;;39.78;19.87;;;;;;;1.42;93.66;99219.05;1769703;81;20980;-40
2022/01/27 07:02:34;;;;;;;30.57;15.88;;;;;;;1.48;93.48;99222.39;1740469;82;20941;-41
2022/01/27 07:05:00;;;;;;;31.42;17.60;;;;;;;1.41;93.18;99224.69;1739692;82;21024;-41
2022/01/27 07:07:26;;;;;;;34.43;17.60;;;;;;;1.48;93.04;99224.98;1738980;82;21441;-41
2022/01/27 07:09:52;;;;;;;36.48;18.37;;;;;;;1.46;92.97;99222.02;1739038;82;20973;-41
2022/01/27 07:12:18;;;;;;;32.42;17.32;;;;;;;1.36;93.31;99214.00;1739120;82;21016;-40
2022/01/27 07:14:44;;;;;;;35.38;18.17;;;;;;;1.47;93.28;99201.69;1739307;82;20972;-41
2022/01/27 07:17:10;;;;;;;38.35;18.37;;;;;;;1.44;93.21;99201.77;1739635;81;20956;-41
2022/01/27 07:19:35;;;;;;;39.42;19.00;;;;;;;1.48;93.12;99195.63;1739879;82;21580;-41
2022/01/27 07:22:02;;;;;;;37.25;16.93;;;;;;;1.55;93.23;99186.85;1739755;82;20976;-41
2022/01/27 07:24:27;;;;;;;33.95;18.02;;;;;;;1.53;93.11;99195.95;1739068;82;21556;-40
2022/01/27 07:26:53;;;;;;;35.40;18.00;;;;;;;1.51;92.89;99189.95;1738054;82;20984;-41
2022/01/27 07:29:20;;;;;;;34.38;16.85;;;;;;;1.54;92.91;99191.16;1740003;82;21016;-41
2022/01/27 07:31:46;;;;;;;29.75;16.60;;;;;;;1.54;92.91;99194.20;1741093;82;21447;-41
2022/01/27 07:34:11;;;;;;;33.88;17.67;;;;;;;1.51;92.90;99193.83;1739560;82;20969;-40
2022/01/27 07:36:40;;;;;;;34.48;15.98;;;;;;;1.59;92.75;99188.48;1739477;82;21028;-40
2022/01/27 07:39:12;;;;;;;31.15;15.95;;;;;;;1.54;92.50;99193.75;1740500;81;21482;-41
2022/01/27 07:41:32;;;;;;;;;;;;;;;1.54;92.73;99192.91;1741923;81;21008;-41
2022/01/27 07:43:58;;;;;;;34.50;15.98;;;;;;;1.58;92.84;99185.92;1768350;80;20092;-41
2022/01/27 07:46:24;;;;;;;28.75;15.32;;;;;;;1.57;92.74;99179.89;1775415;81;20979;-41
2022/01/27 07:48:49;;;;;;;34.65;17.10;;;;;;;1.61;92.70;99173.75;1780571;80;20998;-41
2022/01/27 07:51:16;;;;;;;29.18;15.32;;;;;;;1.63;92.63;99169.84;1780786;80;20971;-41
2022/01/27 07:53:43;;;;;;;31.50;16.17;;;;;;;1.65;92.53;99172.80;1780482;80;20984;-40
2022/01/27 07:56:09;;;;;;;25.97;13.45;;;;;;;1.67;92.44;99170.17;1780930;80;20956;-41
2022/01/27 07:58:38;;;;;;;30.80;15.78;;;;;;;1.64;92.22;99172.86;1780597;80;21073;-40
2022/01/27 08:01:02;;;;;;;;;;;;;;;1.61;92.39;99167.27;1782963;80;20968;-40
2022/01/27 08:03:28;;;;;;;35.68;15.83;;;;;;;1.60;92.38;99163.41;1780518;80;20140;-41
2022/01/27 08:05:53;;;;;;;29.67;14.58;;;;;;;1.63;92.25;99153.83;1780643;80;20980;-40
2022/01/27 08:08:19;;;;;;;29.12;14.75;;;;;;;1.62;92.37;99164.23;1780548;80;20944;-41
2022/01/27 08:10:45;;;;;;;25.82;14.30;;;;;;;1.70;92.22;99155.86;1780474;80;20955;-41
2022/01/27 08:13:12;;;;;;;32.38;14.73;;;;;;;1.65;92.15;99146.03;1780710;80;20948;-40
2022/01/27 08:15:38;;;;;;;32.80;14.10;;;;;;;1.67;92.12;99146.84;1780697;80;21007;-41
2022/01/27 08:18:04;;;;;;;36.03;15.25;;;;;;;1.72;91.93;99137.23;1780706;80;20976;-40
2022/01/27 08:20:31;;;;;;;29.48;14.30;;;;;;;1.68;91.92;99131.27;1780707;80;20951;-40
2022/01/27 08:22:58;;;;;;;26.93;13.75;;;;;;;1.75;91.82;99135.01;1780604;80;20986;-41
2022/01/27 08:25:24;;;;;;;23.10;13.72;;;;;;;1.73;91.68;99134.61;1780673;80;21472;-40
2022/01/27 08:27:55;;;;;;;20.97;12.33;;;;;;;1.66;91.53;99125.72;1780875;80;20971;-40
2022/01/27 08:30:22;;;;;;;27.80;14.18;;;;;;;1.66;91.41;99114.05;1797281;80;21445;-40
2022/01/27 08:32:50;;;;;;;;;;;;;;;1.69;91.39;99121.73;1800090;80;20975;-41
2022/01/27 08:35:20;;;;;;;29.90;16.20;;;;;;;1.76;91.35;99127.20;1797458;80;20112;-41
2022/01/27 08:37:47;;;;;;;23.77;13.25;;;;;;;1.74;91.54;99119.91;1797721;80;20943;-41
2022/01/27 08:40:14;;;;;;;30.80;13.57;;;;;;;1.77;91.37;99114.66;1798076;80;21003;-41
2022/01/27 08:42:44;;;;;;;42.50;20.55;;;;;;;1.77;91.20;99109.47;1796164;80;20943;-40
2022/01/27 08:45:15;;;;;;;26.30;14.40;;;;;;;1.75;91.11;99125.52;1768452;81;20948;-41
2022/01/27 08:47:45;;;;;;;30.82;16.00;;;;;;;1.73;91.05;99117.77;1768523;81;20979;-40
2022/01/27 08:50:12;;;;;;;22.13;12.00;;;;;;;1.77;91.29;99106.04;1766941;81;20980;-40
2022/01/27 08:52:39;;;;;;;19.82;11.93;;;;;;;1.81;91.00;99100.73;1769782;81;20948;-40
2022/01/27 08:55:07;;;;;;;22.60;11.83;;;;;;;1.70;90.74;99106.61;1768552;81;20944;-40
2022/01/27 08:57:34;;;;;;;20.90;12.10;;;;;;;1.80;90.74;99096.45;1770202;81;21547;-40
2022/01/27 09:00:02;;;;;;;19.57;11.93;;;;;;;1.80;90.58;99091.27;1769508;81;20979;-40
2022/01/27 09:02:28;;;;;;;;;;;;;;;1.87;90.70;99085.05;1770685;81;21458;-41
2022/01/27 09:04:54;;;;;;;19.30;11.15;;;;;;;1.86;90.37;99094.16;1768514;81;20405;-41
2022/01/27 09:07:20;;;;;;;18.55;10.88;;;;;;;1.94;90.33;99102.59;1767765;81;20983;-40
2022/01/27 09:09:47;;;;;;;20.48;11.40;;;;;;;1.94;90.20;99079.26;1768886;80;20964;-41
2022/01/27 09:12:14;;;;;;;16.97;11.12;;;;;;;2.03;89.97;99079.49;1768629;81;20987;-40
2022/01/27 09:14:42;;;;;;;18.75;9.95;;;;;;;2.02;89.95;99080.37;1770290;81;20975;-40
2022/01/27 09:17:13;;;;;;;13.83;8.58;;;;;;;1.99;89.52;99075.27;1767449;81;21469;-40
2022/01/27 09:19:41;;;;;;;17.60;9.68;;;;;;;1.92;89.02;99082.34;1766671;81;21027;-41
2022/01/27 09:22:15;;;;;;;14.70;8.78;;;;;;;1.96;89.05;99081.82;1767919;81;20947;-41
2022/01/27 09:24:55;;;;;;;18.75;10.03;;;;;;;2.07;89.21;99074.62;1767891;81;21472;-39
2022/01/27 09:27:19;;;;;;;17.07;8.83;;;;;;;2.14;89.18;99076.19;1768154;81;21453;-41
2022/01/27 09:29:47;;;;;;;15.93;9.00;;;;;;;2.17;88.71;99082.61;1770198;81;21449;-41
2022/01/27 09:32:14;;;;;;;16.23;9.93;;;;;;;2.12;88.47;99076.67;1768839;80;21369;-41
2022/01/27 09:34:40;;;;;;;15.25;9.35;;;;;;;2.11;88.17;99068.47;1767846;81;21449;-41
2022/01/27 09:37:07;;;;;;;17.48;8.93;;;;;;;2.19;88.29;99061.81;1767841;81;21011;-41
2022/01/27 09:39:34;;;;;;;14.50;8.08;;;;;;;2.18;88.38;99064.83;1768019;81;20983;-40
2022/01/27 09:42:03;;;;;;;15.40;8.50;;;;;;;2.16;87.94;99044.56;1768740;81;21027;-41
2022/01/27 09:44:32;;;;;;;14.58;8.23;;;;;;;2.14;87.70;99054.13;1761591;81;21023;-40
2022/01/27 09:47:05;;;;;;;16.23;8.00;;;;;;;2.20;87.61;99044.92;1727933;83;21487;-40
2022/01/27 09:49:42;;;;;;;11.83;7.62;;;;;;;2.15;87.21;99053.26;1727945;83;21007;-41
2022/01/27 09:52:00;;;;;;;14.75;8.38;;;;;;;2.23;87.06;99046.12;1723466;83;21036;-41
2022/01/27 09:54:27;;;;;;;14.33;8.83;;;;;;;2.27;86.95;99032.20;1728101;83;20991;-41
2022/01/27 09:56:53;;;;;;;14.33;8.00;;;;;;;2.29;87.18;99027.82;1727898;83;21011;-42
2022/01/27 09:59:21;;;;;;;14.50;7.05;;;;;;;2.27;86.86;99018.35;1728130;83;21006;-41
2022/01/27 10:02:05;;;;;;;;;;;;;;;2.33;86.44;99007.84;1730502;83;21003;-41
2022/01/27 10:04:51;;;;;;;15.80;8.80;;;;;;;2.28;86.21;98999.31;1727894;83;20096;-41
2022/01/27 10:07:21;;;;;;;14.90;8.60;;;;;;;2.35;86.60;99009.06;1727935;83;21007;-40
2022/01/27 10:10:00;;;;;;;13.43;7.92;;;;;;;2.32;86.51;99004.82;1727987;83;21034;-39
2022/01/27 10:12:31;;;;;;;16.52;8.38;;;;;;;2.34;86.30;99008.67;1726995;83;21504;-40
2022/01/27 10:15:05;;;;;;;15.00;8.75;;;;;;;2.28;86.19;99007.94;1727988;83;21007;-41
2022/01/27 10:17:34;;;;;;;18.12;9.40;;;;;;;2.26;86.18;99009.73;1727162;83;21035;-40
2022/01/27 10:19:59;;;;;;;16.62;8.68;;;;;;;2.28;86.35;99006.64;1727634;83;20995;-41
2022/01/27 10:22:25;;;;;;;14.87;7.85;;;;;;;2.30;85.88;99000.96;1727929;83;21469;-40
2022/01/27 10:25:09;;;;;;;17.25;8.60;;;;;;;2.24;85.66;99008.92;1727899;83;21571;-43
2022/01/27 10:27:45;;;;;;;16.37;9.18;;;;;;;2.22;85.71;99000.75;1727339;83;21047;-40
2022/01/27 10:30:36;;;;;;;19.23;9.38;;;;;;;1.98;85.99;98993.16;1725752;83;21071;-41
2022/01/27 10:32:43;;;;;;;16.20;8.45;;;;;;;2.16;86.44;99003.52;1724304;82;20991;-41
2022/01/27 10:35:11;;;;;;;19.67;9.30;;;;;;;2.14;86.24;98984.55;1727919;83;21054;-40
2022/01/27 10:38:08;;;;;;;16.00;7.78;;;;;;;2.16;86.18;98993.14;1727940;83;21023;-41
2022/01/27 10:40:43;;;;;;;;;;;;;;;2.10;85.68;98970.80;1730485;83;21512;-40
2022/01/27 10:43:20;;;;;;;14.58;8.25;;;;;;;2.14;85.55;98965.94;1725451;83;20112;-41
2022/01/27 10:46:20;;;;;;;16.50;8.65;;;;;;;2.16;85.54;98964.15;1695280;84;21548;-40
2022/01/27 10:48:47;;;;;;;16.23;9.03;;;;;;;2.18;85.14;98959.77;1693890;84;21024;-39
2022/01/27 10:51:25;;;;;;;13.53;7.65;;;;;;;2.14;85.05;98958.16;1688221;85;20979;-36
2022/01/27 10:54:04;;;;;;;13.60;7.97;;;;;;;2.16;84.78;98951.18;1692308;85;20960;-38
2022/01/27 10:56:33;;;;;;;17.50;9.08;;;;;;;2.11;84.75;98943.53;1693364;84;21152;-38
2022/01/27 10:59:03;;;;;;;15.18;8.38;;;;;;;2.16;85.04;98945.98;1694447;84;20995;-38
2022/01/27 11:01:33;;;;;;;14.18;8.13;;;;;;;2.16;85.13;98936.06;1695063;84;21503;-39
2022/01/27 11:04:07;;;;;;;16.17;8.08;;;;;;;2.10;85.50;98943.11;1695189;84;21079;-37
2022/01/27 11:06:35;;;;;;;16.35;8.85;;;;;;;2.10;85.43;98931.90;1694815;84;21007;-36
2022/01/27 11:09:08;;;;;;;16.62;9.20;;;;;;;2.14;85.76;98932.22;1695104;84;21047;-36
2022/01/27 11:11:33;;;;;;;17.37;9.38;;;;;;;2.09;86.07;98927.17;1694875;84;20991;-38
2022/01/27 11:13:59;;;;;;;21.57;10.03;;;;;;;2.15;86.25;98922.25;1695488;84;21496;-38
2022/01/27 11:16:47;;;;;;;13.32;7.87;;;;;;;2.12;86.31;98917.14;1695531;84;21067;-39
2022/01/27 11:19:13;;;;;;;17.73;9.65;;;;;;;1.98;86.75;98906.28;1689159;84;21498;-39
2022/01/27 11:21:37;;;;;;;16.37;8.55;;;;;;;2.06;87.23;98906.94;1692637;84;21536;-37
2022/01/27 11:24:04;;;;;;;16.00;9.20;;;;;;;1.99;87.41;98905.41;1693390;84;21105;-38
2022/01/27 11:26:28;;;;;;;14.85;9.33;;;;;;;1.96;87.66;98901.59;1694514;84;21082;-36
2022/01/27 11:28:57;;;;;;;15.60;8.97;;;;;;;1.95;87.70;98903.76;1695362;84;21493;-38
2022/01/27 11:31:39;;;;;;;19.17;8.73;;;;;;;1.89;87.72;98897.87;1695168;84;21015;-38
2022/01/27 11:34:08;;;;;;;15.95;9.15;;;;;;;1.87;87.68;98899.66;1675083;85;21461;-39
2022/01/27 11:36:36;;;;;;;16.25;8.98;;;;;;;1.83;88.20;98890.69;1693475;84;21035;-40
2022/01/27 11:39:10;;;;;;;16.45;8.98;;;;;;;1.86;88.53;98894.05;1685664;84;20975;-40
2022/01/27 11:41:44;;;;;;;14.23;9.20;;;;;;;1.85;88.40;98887.61;1682384;84;20975;-39
2022/01/27 11:44:36;;;;;;;17.27;8.93;;;;;;;1.92;88.39;98891.28;1702860;82;21087;-40
2022/01/27 11:47:16;;;;;;;21.75;10.82;;;;;;;1.86;88.82;98886.27;1717638;83;20992;-39
2022/01/27 11:50:05;;;;;;;52.83;17.92;;;;;;;1.88;89.17;98878.45;1723759;82;20979;-37
2022/01/27 11:52:31;;;;;;;47.10;18.35;;;;;;;1.79;89.51;98876.11;1718690;81;20937;-39
2022/01/27 11:55:25;;;;;;;42.98;15.23;;;;;;;1.81;89.64;98860.06;1722923;81;20976;-39
2022/01/27 11:57:57;;;;;;;25.62;12.15;;;;;;;1.86;89.67;98862.94;1721937;82;21416;-38
2022/01/27 12:00:28;;;;;;;22.25;12.18;;;;;;;1.83;89.74;98853.09;1719863;82;21026;-37
2022/01/27 12:03:06;;;;;;;21.70;10.65;;;;;;;1.81;90.01;98857.47;1720628;83;21031;-39
2022/01/27 12:05:42;;;;;;;23.57;12.25;;;;;;;1.77;89.93;98851.52;1723435;82;20995;-38
2022/01/27 12:08:21;;;;;;;19.37;11.70;;;;;;;1.69;90.10;98845.25;1718161;83;21623;-38
2022/01/27 12:10:58;;;;;;;17.12;10.85;;;;;;;1.65;89.89;98847.48;1723857;83;21011;-39
2022/01/27 12:13:38;;;;;;;19.95;11.18;;;;;;;1.64;90.06;98838.48;1720837;83;20975;-39
2022/01/27 12:19:12;;;;;;;19.55;9.95;;;;;;;1.64;89.82;98826.37;1721839;82;21110;-44
2022/01/27 12:21:54;;;;;;;20.17;11.15;;;;;;;1.58;90.37;98823.08;1719599;83;20987;-38